sensor_id;sensor_type;location;lat;lon;timestamp;P1;durP1;ratioP1;P2;durP2;ratioP2
68989;SDS011;56046;47.270;11.368;2024-03-22T00:01:49;4.90;;;2.10;;
68989;SDS011;56046;47.270;11.368;2024-03-22T00:04:15;9.75;;;4.20;;
68989;SDS011;56046;47.270;11.368;2024-03-22T00:06:41;7.82;;;4.13;;
68989;SDS011;56046;47.270;11.368;2024-03-22T00:09:06;9.15;;;4.60;;
68989;SDS011;56046;47.270;11.368;2024-03-22T00:11:32;7.22;;;3.60;;
68989;SDS011;56046;47.270;11.368;2024-03-22T00:13:57;8.38;;;4.00;;
68989;SDS011;56046;47.270;11.368;2024-03-22T00:16:22;8.57;;;4.30;;
68989;SDS011;56046;47.270;11.368;2024-03-22T00:18:47;9.50;;;5.30;;
68989;SDS011;56046;47.270;11.368;2024-03-22T00:21:13;10.03;;;4.97;;
68989;SDS011;56046;47.270;11.368;2024-03-22T00:23:38;11.20;;;5.10;;
68989;SDS011;56046;47.270;11.368;2024-03-22T00:26:03;10.13;;;4.63;;
68989;SDS011;56046;47.270;11.368;2024-03-22T00:28:28;11.73;;;6.13;;
68989;SDS011;56046;47.270;11.368;2024-03-22T00:30:54;12.73;;;6.30;;
68989;SDS011;56046;47.270;11.368;2024-03-22T00:33:19;12.30;;;5.90;;
68989;SDS011;56046;47.270;11.368;2024-03-22T00:35:44;11.57;;;5.40;;
68989;SDS011;56046;47.270;11.368;2024-03-22T00:38:09;10.40;;;5.13;;
68989;SDS011;56046;47.270;11.368;2024-03-22T00:40:34;7.87;;;4.03;;
68989;SDS011;56046;47.270;11.368;2024-03-22T00:43:00;7.90;;;3.57;;
68989;SDS011;56046;47.270;11.368;2024-03-22T00:45:25;9.23;;;3.97;;
68989;SDS011;56046;47.270;11.368;2024-03-22T00:47:50;7.60;;;3.40;;
68989;SDS011;56046;47.270;11.368;2024-03-22T00:50:16;7.00;;;3.13;;
68989;SDS011;56046;47.270;11.368;2024-03-22T00:52:41;9.07;;;3.23;;
68989;SDS011;56046;47.270;11.368;2024-03-22T00:55:07;8.93;;;3.90;;
68989;SDS011;56046;47.270;11.368;2024-03-22T00:57:32;8.18;;;4.07;;
68989;SDS011;56046;47.270;11.368;2024-03-22T00:59:57;7.80;;;3.43;;
68989;SDS011;56046;47.270;11.368;2024-03-22T01:02:22;7.80;;;4.00;;
68989;SDS011;56046;47.270;11.368;2024-03-22T01:04:48;7.60;;;3.53;;
68989;SDS011;56046;47.270;11.368;2024-03-22T01:07:13;6.77;;;3.40;;
68989;SDS011;56046;47.270;11.368;2024-03-22T01:09:38;9.53;;;4.10;;
68989;SDS011;56046;47.270;11.368;2024-03-22T01:12:04;8.23;;;4.13;;
68989;SDS011;56046;47.270;11.368;2024-03-22T01:14:30;9.90;;;4.47;;
68989;SDS011;56046;47.270;11.368;2024-03-22T01:16:55;12.53;;;5.73;;
68989;SDS011;56046;47.270;11.368;2024-03-22T01:19:20;9.57;;;4.13;;
68989;SDS011;56046;47.270;11.368;2024-03-22T01:21:46;10.85;;;4.90;;
68989;SDS011;56046;47.270;11.368;2024-03-22T01:24:11;10.07;;;3.90;;
68989;SDS011;56046;47.270;11.368;2024-03-22T01:26:37;9.57;;;4.43;;
68989;SDS011;56046;47.270;11.368;2024-03-22T01:29:02;10.83;;;4.77;;
68989;SDS011;56046;47.270;11.368;2024-03-22T01:31:27;8.97;;;4.13;;
68989;SDS011;56046;47.270;11.368;2024-03-22T01:33:52;10.40;;;5.07;;
68989;SDS011;56046;47.270;11.368;2024-03-22T01:36:18;12.10;;;5.93;;
68989;SDS011;56046;47.270;11.368;2024-03-22T01:38:43;12.43;;;6.50;;
68989;SDS011;56046;47.270;11.368;2024-03-22T01:41:08;15.47;;;6.77;;
68989;SDS011;56046;47.270;11.368;2024-03-22T01:43:33;12.57;;;6.47;;
68989;SDS011;56046;47.270;11.368;2024-03-22T01:45:59;11.53;;;5.60;;
68989;SDS011;56046;47.270;11.368;2024-03-22T01:48:24;11.00;;;5.83;;
68989;SDS011;56046;47.270;11.368;2024-03-22T01:50:50;12.00;;;6.10;;
68989;SDS011;56046;47.270;11.368;2024-03-22T01:53:15;11.10;;;6.00;;
68989;SDS011;56046;47.270;11.368;2024-03-22T01:55:40;12.63;;;6.27;;
68989;SDS011;56046;47.270;11.368;2024-03-22T01:58:06;12.57;;;6.27;;
68989;SDS011;56046;47.270;11.368;2024-03-22T02:00:31;14.43;;;6.57;;
68989;SDS011;56046;47.270;11.368;2024-03-22T02:02:57;13.23;;;6.70;;
68989;SDS011;56046;47.270;11.368;2024-03-22T02:05:22;13.50;;;6.80;;
68989;SDS011;56046;47.270;11.368;2024-03-22T02:07:49;12.87;;;6.23;;
68989;SDS011;56046;47.270;11.368;2024-03-22T02:10:14;11.27;;;5.83;;
68989;SDS011;56046;47.270;11.368;2024-03-22T02:12:40;12.50;;;6.78;;
68989;SDS011;56046;47.270;11.368;2024-03-22T02:15:06;10.23;;;5.73;;
68989;SDS011;56046;47.270;11.368;2024-03-22T02:17:34;10.98;;;5.85;;
68989;SDS011;56046;47.270;11.368;2024-03-22T02:20:00;9.83;;;5.77;;
68989;SDS011;56046;47.270;11.368;2024-03-22T02:22:26;10.77;;;5.97;;
68989;SDS011;56046;47.270;11.368;2024-03-22T02:24:51;11.13;;;6.10;;
68989;SDS011;56046;47.270;11.368;2024-03-22T02:27:16;10.00;;;5.43;;
68989;SDS011;56046;47.270;11.368;2024-03-22T02:29:42;11.37;;;5.80;;
68989;SDS011;56046;47.270;11.368;2024-03-22T02:32:07;10.80;;;5.60;;
68989;SDS011;56046;47.270;11.368;2024-03-22T02:34:32;11.23;;;5.80;;
68989;SDS011;56046;47.270;11.368;2024-03-22T02:36:57;9.73;;;5.47;;
68989;SDS011;56046;47.270;11.368;2024-03-22T02:39:23;10.73;;;5.27;;
68989;SDS011;56046;47.270;11.368;2024-03-22T02:41:50;8.83;;;4.93;;
68989;SDS011;56046;47.270;11.368;2024-03-22T02:44:15;9.97;;;5.33;;
68989;SDS011;56046;47.270;11.368;2024-03-22T02:46:40;10.97;;;5.33;;
68989;SDS011;56046;47.270;11.368;2024-03-22T02:49:06;11.27;;;5.82;;
68989;SDS011;56046;47.270;11.368;2024-03-22T02:51:31;10.27;;;5.93;;
68989;SDS011;56046;47.270;11.368;2024-03-22T02:53:56;12.53;;;6.50;;
68989;SDS011;56046;47.270;11.368;2024-03-22T02:56:22;11.17;;;6.73;;
68989;SDS011;56046;47.270;11.368;2024-03-22T02:58:48;11.47;;;6.17;;
68989;SDS011;56046;47.270;11.368;2024-03-22T03:01:14;10.77;;;5.88;;
68989;SDS011;56046;47.270;11.368;2024-03-22T03:03:39;12.20;;;6.93;;
68989;SDS011;56046;47.270;11.368;2024-03-22T03:06:04;11.43;;;6.83;;
68989;SDS011;56046;47.270;11.368;2024-03-22T03:08:30;11.35;;;5.90;;
68989;SDS011;56046;47.270;11.368;2024-03-22T03:10:55;11.10;;;6.40;;
68989;SDS011;56046;47.270;11.368;2024-03-22T03:13:20;12.47;;;6.43;;
68989;SDS011;56046;47.270;11.368;2024-03-22T03:15:46;12.27;;;6.80;;
68989;SDS011;56046;47.270;11.368;2024-03-22T03:18:11;13.97;;;6.50;;
68989;SDS011;56046;47.270;11.368;2024-03-22T03:20:36;14.03;;;7.10;;
68989;SDS011;56046;47.270;11.368;2024-03-22T03:23:02;12.52;;;6.68;;
68989;SDS011;56046;47.270;11.368;2024-03-22T03:25:28;12.80;;;7.20;;
68989;SDS011;56046;47.270;11.368;2024-03-22T03:27:53;15.13;;;6.90;;
68989;SDS011;56046;47.270;11.368;2024-03-22T03:30:18;15.50;;;7.93;;
68989;SDS011;56046;47.270;11.368;2024-03-22T03:32:43;13.03;;;7.03;;
68989;SDS011;56046;47.270;11.368;2024-03-22T03:35:09;14.47;;;7.40;;
68989;SDS011;56046;47.270;11.368;2024-03-22T03:37:34;14.10;;;7.13;;
68989;SDS011;56046;47.270;11.368;2024-03-22T03:39:59;14.13;;;6.50;;
68989;SDS011;56046;47.270;11.368;2024-03-22T03:42:24;12.43;;;6.80;;
68989;SDS011;56046;47.270;11.368;2024-03-22T03:44:50;13.25;;;6.93;;
68989;SDS011;56046;47.270;11.368;2024-03-22T03:47:15;11.70;;;6.33;;
68989;SDS011;56046;47.270;11.368;2024-03-22T03:49:40;13.37;;;7.10;;
68989;SDS011;56046;47.270;11.368;2024-03-22T03:52:06;13.73;;;7.20;;
68989;SDS011;56046;47.270;11.368;2024-03-22T03:54:31;13.60;;;7.37;;
68989;SDS011;56046;47.270;11.368;2024-03-22T03:56:56;15.37;;;7.50;;
68989;SDS011;56046;47.270;11.368;2024-03-22T03:59:22;11.67;;;6.50;;
68989;SDS011;56046;47.270;11.368;2024-03-22T04:01:47;12.70;;;7.50;;
68989;SDS011;56046;47.270;11.368;2024-03-22T04:04:12;10.23;;;5.40;;
68989;SDS011;56046;47.270;11.368;2024-03-22T04:06:38;7.53;;;4.30;;
68989;SDS011;56046;47.270;11.368;2024-03-22T04:09:03;7.53;;;4.00;;
68989;SDS011;56046;47.270;11.368;2024-03-22T04:11:28;8.97;;;4.10;;
68989;SDS011;56046;47.270;11.368;2024-03-22T04:13:54;7.60;;;4.07;;
68989;SDS011;56046;47.270;11.368;2024-03-22T04:16:19;7.30;;;3.67;;
68989;SDS011;56046;47.270;11.368;2024-03-22T04:18:45;6.03;;;3.70;;
68989;SDS011;56046;47.270;11.368;2024-03-22T04:21:10;6.07;;;3.47;;
68989;SDS011;56046;47.270;11.368;2024-03-22T04:23:35;5.93;;;3.37;;
68989;SDS011;56046;47.270;11.368;2024-03-22T04:26:01;5.80;;;3.10;;
68989;SDS011;56046;47.270;11.368;2024-03-22T04:28:27;6.20;;;3.00;;
68989;SDS011;56046;47.270;11.368;2024-03-22T04:33:20;5.05;;;3.10;;
68989;SDS011;56046;47.270;11.368;2024-03-22T04:35:46;5.20;;;2.60;;
68989;SDS011;56046;47.270;11.368;2024-03-22T04:38:11;5.83;;;2.80;;
68989;SDS011;56046;47.270;11.368;2024-03-22T04:40:36;5.27;;;2.83;;
68989;SDS011;56046;47.270;11.368;2024-03-22T04:43:01;6.13;;;2.77;;
68989;SDS011;56046;47.270;11.368;2024-03-22T04:45:27;6.53;;;2.70;;
68989;SDS011;56046;47.270;11.368;2024-03-22T04:47:52;6.57;;;2.57;;
68989;SDS011;56046;47.270;11.368;2024-03-22T04:50:17;5.18;;;2.45;;
68989;SDS011;56046;47.270;11.368;2024-03-22T04:52:43;4.93;;;2.67;;
68989;SDS011;56046;47.270;11.368;2024-03-22T04:55:08;5.43;;;2.57;;
68989;SDS011;56046;47.270;11.368;2024-03-22T04:57:33;6.77;;;3.10;;
68989;SDS011;56046;47.270;11.368;2024-03-22T04:59:58;4.43;;;2.43;;
68989;SDS011;56046;47.270;11.368;2024-03-22T05:02:23;5.00;;;2.50;;
68989;SDS011;56046;47.270;11.368;2024-03-22T05:04:49;5.33;;;3.00;;
68989;SDS011;56046;47.270;11.368;2024-03-22T05:07:14;4.53;;;2.70;;
68989;SDS011;56046;47.270;11.368;2024-03-22T05:09:39;4.77;;;2.70;;
68989;SDS011;56046;47.270;11.368;2024-03-22T05:12:05;9.70;;;4.27;;
68989;SDS011;56046;47.270;11.368;2024-03-22T05:14:30;10.30;;;6.13;;
68989;SDS011;56046;47.270;11.368;2024-03-22T05:16:55;17.43;;;10.30;;
68989;SDS011;56046;47.270;11.368;2024-03-22T05:19:21;12.20;;;7.27;;
68989;SDS011;56046;47.270;11.368;2024-03-22T05:21:46;8.40;;;4.57;;
68989;SDS011;56046;47.270;11.368;2024-03-22T05:24:11;6.93;;;3.97;;
68989;SDS011;56046;47.270;11.368;2024-03-22T05:26:36;6.23;;;3.37;;
68989;SDS011;56046;47.270;11.368;2024-03-22T05:29:02;6.75;;;3.20;;
68989;SDS011;56046;47.270;11.368;2024-03-22T05:31:27;5.80;;;3.37;;
68989;SDS011;56046;47.270;11.368;2024-03-22T05:33:53;7.77;;;3.40;;
68989;SDS011;56046;47.270;11.368;2024-03-22T05:36:18;5.90;;;3.60;;
68989;SDS011;56046;47.270;11.368;2024-03-22T05:38:43;5.80;;;3.17;;
68989;SDS011;56046;47.270;11.368;2024-03-22T05:41:09;5.70;;;3.17;;
68989;SDS011;56046;47.270;11.368;2024-03-22T05:43:34;5.90;;;3.60;;
68989;SDS011;56046;47.270;11.368;2024-03-22T05:46:00;5.97;;;3.63;;
68989;SDS011;56046;47.270;11.368;2024-03-22T05:48:25;7.00;;;4.10;;
68989;SDS011;56046;47.270;11.368;2024-03-22T05:50:51;6.65;;;3.13;;
68989;SDS011;56046;47.270;11.368;2024-03-22T05:53:17;5.77;;;3.30;;
68989;SDS011;56046;47.270;11.368;2024-03-22T05:55:42;5.37;;;2.50;;
68989;SDS011;56046;47.270;11.368;2024-03-22T05:58:08;5.10;;;2.80;;
68989;SDS011;56046;47.270;11.368;2024-03-22T06:00:34;8.65;;;3.70;;
68989;SDS011;56046;47.270;11.368;2024-03-22T06:02:59;7.53;;;4.27;;
68989;SDS011;56046;47.270;11.368;2024-03-22T06:05:24;6.37;;;3.40;;
68989;SDS011;56046;47.270;11.368;2024-03-22T06:07:50;6.60;;;3.47;;
68989;SDS011;56046;47.270;11.368;2024-03-22T06:10:15;5.70;;;2.80;;
68989;SDS011;56046;47.270;11.368;2024-03-22T06:12:41;5.60;;;3.17;;
68989;SDS011;56046;47.270;11.368;2024-03-22T06:15:07;6.53;;;3.50;;
68989;SDS011;56046;47.270;11.368;2024-03-22T06:17:32;6.47;;;3.03;;
68989;SDS011;56046;47.270;11.368;2024-03-22T06:19:58;5.47;;;3.23;;
68989;SDS011;56046;47.270;11.368;2024-03-22T06:22:25;6.13;;;3.22;;
68989;SDS011;56046;47.270;11.368;2024-03-22T06:24:50;5.40;;;3.17;;
68989;SDS011;56046;47.270;11.368;2024-03-22T06:27:15;7.10;;;3.40;;
68989;SDS011;56046;47.270;11.368;2024-03-22T06:29:41;6.30;;;2.87;;
68989;SDS011;56046;47.270;11.368;2024-03-22T06:32:06;6.03;;;2.73;;
68989;SDS011;56046;47.270;11.368;2024-03-22T06:34:31;5.28;;;2.67;;
68989;SDS011;56046;47.270;11.368;2024-03-22T06:36:56;5.83;;;2.47;;
68989;SDS011;56046;47.270;11.368;2024-03-22T06:39:22;4.80;;;2.80;;
68989;SDS011;56046;47.270;11.368;2024-03-22T06:41:47;4.47;;;2.47;;
68989;SDS011;56046;47.270;11.368;2024-03-22T06:44:12;4.90;;;2.57;;
68989;SDS011;56046;47.270;11.368;2024-03-22T06:46:39;5.72;;;3.03;;
68989;SDS011;56046;47.270;11.368;2024-03-22T06:49:04;7.27;;;3.60;;
68989;SDS011;56046;47.270;11.368;2024-03-22T06:51:29;5.47;;;3.20;;
68989;SDS011;56046;47.270;11.368;2024-03-22T06:53:55;5.30;;;3.05;;
68989;SDS011;56046;47.270;11.368;2024-03-22T06:56:20;7.50;;;3.73;;
68989;SDS011;56046;47.270;11.368;2024-03-22T06:58:46;6.70;;;3.73;;
68989;SDS011;56046;47.270;11.368;2024-03-22T07:01:11;7.40;;;4.47;;
68989;SDS011;56046;47.270;11.368;2024-03-22T07:03:36;7.87;;;4.47;;
68989;SDS011;56046;47.270;11.368;2024-03-22T07:06:02;7.93;;;4.27;;
68989;SDS011;56046;47.270;11.368;2024-03-22T07:08:27;9.90;;;5.30;;
68989;SDS011;56046;47.270;11.368;2024-03-22T07:10:53;9.43;;;4.73;;
68989;SDS011;56046;47.270;11.368;2024-03-22T07:13:19;8.33;;;4.57;;
68989;SDS011;56046;47.270;11.368;2024-03-22T07:15:45;8.25;;;4.43;;
68989;SDS011;56046;47.270;11.368;2024-03-22T07:18:12;8.48;;;5.18;;
68989;SDS011;56046;47.270;11.368;2024-03-22T07:20:37;9.90;;;4.63;;
68989;SDS011;56046;47.270;11.368;2024-03-22T07:23:03;8.47;;;4.37;;
68989;SDS011;56046;47.270;11.368;2024-03-22T07:25:29;6.97;;;4.20;;
68989;SDS011;56046;47.270;11.368;2024-03-22T07:27:54;7.43;;;4.10;;
68989;SDS011;56046;47.270;11.368;2024-03-22T07:30:19;6.93;;;4.30;;
68989;SDS011;56046;47.270;11.368;2024-03-22T07:32:46;6.80;;;3.60;;
68989;SDS011;56046;47.270;11.368;2024-03-22T07:35:12;7.60;;;3.97;;
68989;SDS011;56046;47.270;11.368;2024-03-22T07:37:37;7.90;;;4.00;;
68989;SDS011;56046;47.270;11.368;2024-03-22T07:40:03;6.07;;;3.70;;
68989;SDS011;56046;47.270;11.368;2024-03-22T07:42:28;6.50;;;4.20;;
68989;SDS011;56046;47.270;11.368;2024-03-22T07:44:53;7.63;;;4.63;;
68989;SDS011;56046;47.270;11.368;2024-03-22T07:47:19;8.30;;;3.90;;
68989;SDS011;56046;47.270;11.368;2024-03-22T07:49:44;6.05;;;3.47;;
68989;SDS011;56046;47.270;11.368;2024-03-22T07:52:10;7.00;;;4.20;;
68989;SDS011;56046;47.270;11.368;2024-03-22T07:54:35;7.40;;;3.57;;
68989;SDS011;56046;47.270;11.368;2024-03-22T07:57:00;7.17;;;4.37;;
68989;SDS011;56046;47.270;11.368;2024-03-22T07:59:26;6.70;;;3.90;;
68989;SDS011;56046;47.270;11.368;2024-03-22T08:01:51;7.77;;;4.27;;
68989;SDS011;56046;47.270;11.368;2024-03-22T08:04:16;6.07;;;3.83;;
68989;SDS011;56046;47.270;11.368;2024-03-22T08:06:42;5.80;;;3.53;;
68989;SDS011;56046;47.270;11.368;2024-03-22T08:09:07;8.47;;;4.40;;
68989;SDS011;56046;47.270;11.368;2024-03-22T08:11:32;6.73;;;3.90;;
68989;SDS011;56046;47.270;11.368;2024-03-22T08:13:58;7.10;;;3.90;;
68989;SDS011;56046;47.270;11.368;2024-03-22T08:16:28;7.25;;;3.92;;
68989;SDS011;56046;47.270;11.368;2024-03-22T08:18:53;7.57;;;3.88;;
68989;SDS011;56046;47.270;11.368;2024-03-22T08:21:19;8.27;;;3.60;;
68989;SDS011;56046;47.270;11.368;2024-03-22T08:23:44;6.43;;;3.67;;
68989;SDS011;56046;47.270;11.368;2024-03-22T08:26:10;7.15;;;4.05;;
68989;SDS011;56046;47.270;11.368;2024-03-22T08:28:36;6.17;;;3.43;;
68989;SDS011;56046;47.270;11.368;2024-03-22T08:31:04;6.20;;;3.87;;
68989;SDS011;56046;47.270;11.368;2024-03-22T08:33:30;7.55;;;3.88;;
68989;SDS011;56046;47.270;11.368;2024-03-22T08:35:55;7.80;;;3.87;;
68989;SDS011;56046;47.270;11.368;2024-03-22T08:38:25;6.93;;;4.20;;
68989;SDS011;56046;47.270;11.368;2024-03-22T08:40:52;8.35;;;4.03;;
68989;SDS011;56046;47.270;11.368;2024-03-22T08:43:17;5.80;;;3.17;;
68989;SDS011;56046;47.270;11.368;2024-03-22T08:45:42;7.47;;;3.50;;
68989;SDS011;56046;47.270;11.368;2024-03-22T08:48:07;5.80;;;3.33;;
68989;SDS011;56046;47.270;11.368;2024-03-22T08:50:33;8.10;;;3.80;;
68989;SDS011;56046;47.270;11.368;2024-03-22T08:52:58;7.53;;;3.92;;
68989;SDS011;56046;47.270;11.368;2024-03-22T08:55:24;6.17;;;3.43;;
68989;SDS011;56046;47.270;11.368;2024-03-22T08:57:49;5.30;;;3.37;;
68989;SDS011;56046;47.270;11.368;2024-03-22T09:00:14;6.83;;;4.43;;
68989;SDS011;56046;47.270;11.368;2024-03-22T09:02:39;7.27;;;3.47;;
68989;SDS011;56046;47.270;11.368;2024-03-22T09:05:05;6.37;;;3.90;;
68989;SDS011;56046;47.270;11.368;2024-03-22T09:07:31;5.60;;;2.70;;
68989;SDS011;56046;47.270;11.368;2024-03-22T09:09:56;6.50;;;3.07;;
68989;SDS011;56046;47.270;11.368;2024-03-22T09:12:21;8.77;;;3.50;;
68989;SDS011;56046;47.270;11.368;2024-03-22T09:14:46;6.93;;;3.40;;
68989;SDS011;56046;47.270;11.368;2024-03-22T09:17:12;6.37;;;3.50;;
68989;SDS011;56046;47.270;11.368;2024-03-22T09:19:37;5.03;;;3.27;;
68989;SDS011;56046;47.270;11.368;2024-03-22T09:22:02;4.60;;;2.87;;
68989;SDS011;56046;47.270;11.368;2024-03-22T09:24:28;4.37;;;2.30;;
68989;SDS011;56046;47.270;11.368;2024-03-22T09:26:53;5.37;;;2.63;;
68989;SDS011;56046;47.270;11.368;2024-03-22T09:29:18;5.20;;;3.20;;
68989;SDS011;56046;47.270;11.368;2024-03-22T09:31:43;6.37;;;3.43;;
68989;SDS011;56046;47.270;11.368;2024-03-22T09:34:09;5.77;;;3.17;;
68989;SDS011;56046;47.270;11.368;2024-03-22T09:36:34;6.93;;;3.33;;
68989;SDS011;56046;47.270;11.368;2024-03-22T09:39:01;5.60;;;3.17;;
68989;SDS011;56046;47.270;11.368;2024-03-22T09:41:26;6.88;;;3.30;;
68989;SDS011;56046;47.270;11.368;2024-03-22T09:43:51;6.80;;;3.17;;
68989;SDS011;56046;47.270;11.368;2024-03-22T09:46:18;6.20;;;2.80;;
68989;SDS011;56046;47.270;11.368;2024-03-22T09:48:44;5.60;;;3.22;;
68989;SDS011;56046;47.270;11.368;2024-03-22T09:51:10;5.55;;;2.95;;
68989;SDS011;56046;47.270;11.368;2024-03-22T09:53:35;4.57;;;2.90;;
68989;SDS011;56046;47.270;11.368;2024-03-22T09:56:01;5.00;;;2.92;;
68989;SDS011;56046;47.270;11.368;2024-03-22T09:58:27;6.33;;;2.60;;
68989;SDS011;56046;47.270;11.368;2024-03-22T10:00:53;5.13;;;2.58;;
68989;SDS011;56046;47.270;11.368;2024-03-22T10:03:20;5.25;;;2.58;;
68989;SDS011;56046;47.270;11.368;2024-03-22T10:05:46;6.93;;;3.00;;
68989;SDS011;56046;47.270;11.368;2024-03-22T10:08:12;5.20;;;3.10;;
68989;SDS011;56046;47.270;11.368;2024-03-22T10:10:37;4.50;;;2.77;;
68989;SDS011;56046;47.270;11.368;2024-03-22T10:13:03;6.00;;;3.07;;
68989;SDS011;56046;47.270;11.368;2024-03-22T10:15:29;4.90;;;2.40;;
68989;SDS011;56046;47.270;11.368;2024-03-22T10:17:56;3.83;;;1.77;;
68989;SDS011;56046;47.270;11.368;2024-03-22T10:20:22;5.33;;;2.10;;
68989;SDS011;56046;47.270;11.368;2024-03-22T10:22:57;3.60;;;1.63;;
68989;SDS011;56046;47.270;11.368;2024-03-22T10:25:25;3.83;;;1.83;;
68989;SDS011;56046;47.270;11.368;2024-03-22T10:27:53;3.03;;;2.10;;
68989;SDS011;56046;47.270;11.368;2024-03-22T10:30:18;3.60;;;2.53;;
68989;SDS011;56046;47.270;11.368;2024-03-22T10:32:43;5.47;;;2.27;;
68989;SDS011;56046;47.270;11.368;2024-03-22T10:35:11;4.37;;;2.53;;
68989;SDS011;56046;47.270;11.368;2024-03-22T10:37:36;6.50;;;2.50;;
68989;SDS011;56046;47.270;11.368;2024-03-22T10:40:02;4.63;;;2.70;;
68989;SDS011;56046;47.270;11.368;2024-03-22T10:42:35;4.47;;;2.22;;
68989;SDS011;56046;47.270;11.368;2024-03-22T10:45:01;5.00;;;2.10;;
68989;SDS011;56046;47.270;11.368;2024-03-22T10:47:28;3.38;;;1.90;;
68989;SDS011;56046;47.270;11.368;2024-03-22T10:49:55;4.15;;;2.70;;
68989;SDS011;56046;47.270;11.368;2024-03-22T10:52:23;5.53;;;2.33;;
68989;SDS011;56046;47.270;11.368;2024-03-22T10:54:49;3.33;;;2.03;;
68989;SDS011;56046;47.270;11.368;2024-03-22T10:57:15;4.10;;;2.43;;
68989;SDS011;56046;47.270;11.368;2024-03-22T10:59:41;5.35;;;2.53;;
68989;SDS011;56046;47.270;11.368;2024-03-22T11:02:07;4.83;;;1.90;;
68989;SDS011;56046;47.270;11.368;2024-03-22T11:04:35;3.43;;;1.50;;
68989;SDS011;56046;47.270;11.368;2024-03-22T11:07:00;6.93;;;2.37;;
68989;SDS011;56046;47.270;11.368;2024-03-22T11:09:26;3.92;;;1.95;;
68989;SDS011;56046;47.270;11.368;2024-03-22T11:11:52;4.87;;;2.10;;
68989;SDS011;56046;47.270;11.368;2024-03-22T11:14:17;4.68;;;2.30;;
68989;SDS011;56046;47.270;11.368;2024-03-22T11:16:46;5.10;;;2.00;;
68989;SDS011;56046;47.270;11.368;2024-03-22T11:19:11;3.50;;;2.00;;
68989;SDS011;56046;47.270;11.368;2024-03-22T11:21:37;4.03;;;2.03;;
68989;SDS011;56046;47.270;11.368;2024-03-22T11:24:03;4.22;;;2.38;;
68989;SDS011;56046;47.270;11.368;2024-03-22T11:26:28;6.45;;;2.42;;
68989;SDS011;56046;47.270;11.368;2024-03-22T11:28:54;3.27;;;2.00;;
68989;SDS011;56046;47.270;11.368;2024-03-22T11:31:19;3.07;;;1.70;;
68989;SDS011;56046;47.270;11.368;2024-03-22T11:33:52;4.25;;;1.60;;
68989;SDS011;56046;47.270;11.368;2024-03-22T11:36:17;5.83;;;2.27;;
68989;SDS011;56046;47.270;11.368;2024-03-22T11:38:43;4.30;;;1.73;;
68989;SDS011;56046;47.270;11.368;2024-03-22T11:41:08;2.80;;;1.70;;
68989;SDS011;56046;47.270;11.368;2024-03-22T11:43:34;3.55;;;1.95;;
68989;SDS011;56046;47.270;11.368;2024-03-22T11:45:59;3.90;;;2.00;;
68989;SDS011;56046;47.270;11.368;2024-03-22T11:48:26;4.03;;;1.85;;
68989;SDS011;56046;47.270;11.368;2024-03-22T11:50:52;3.00;;;1.40;;
68989;SDS011;56046;47.270;11.368;2024-03-22T11:53:17;3.40;;;1.80;;
68989;SDS011;56046;47.270;11.368;2024-03-22T11:55:42;4.07;;;2.47;;
68989;SDS011;56046;47.270;11.368;2024-03-22T11:58:10;4.70;;;1.58;;
68989;SDS011;56046;47.270;11.368;2024-03-22T12:00:36;3.33;;;1.80;;
68989;SDS011;56046;47.270;11.368;2024-03-22T12:03:03;3.00;;;1.80;;
68989;SDS011;56046;47.270;11.368;2024-03-22T12:05:29;2.80;;;1.37;;
68989;SDS011;56046;47.270;11.368;2024-03-22T12:07:54;2.75;;;1.50;;
68989;SDS011;56046;47.270;11.368;2024-03-22T12:10:20;4.32;;;1.90;;
68989;SDS011;56046;47.270;11.368;2024-03-22T12:12:45;2.60;;;1.00;;
68989;SDS011;56046;47.270;11.368;2024-03-22T12:15:11;2.30;;;1.43;;
68989;SDS011;56046;47.270;11.368;2024-03-22T12:17:36;2.17;;;1.03;;
68989;SDS011;56046;47.270;11.368;2024-03-22T12:20:02;2.90;;;1.02;;
68989;SDS011;56046;47.270;11.368;2024-03-22T12:22:29;2.85;;;1.45;;
68989;SDS011;56046;47.270;11.368;2024-03-22T12:24:54;2.50;;;1.20;;
68989;SDS011;56046;47.270;11.368;2024-03-22T12:27:19;2.63;;;1.50;;
68989;SDS011;56046;47.270;11.368;2024-03-22T12:29:44;3.10;;;1.90;;
68989;SDS011;56046;47.270;11.368;2024-03-22T12:32:10;2.07;;;0.93;;
68989;SDS011;56046;47.270;11.368;2024-03-22T12:34:35;5.70;;;1.40;;
68989;SDS011;56046;47.270;11.368;2024-03-22T12:37:01;3.37;;;1.70;;
68989;SDS011;56046;47.270;11.368;2024-03-22T12:39:26;2.30;;;1.20;;
68989;SDS011;56046;47.270;11.368;2024-03-22T12:41:51;2.53;;;1.13;;
68989;SDS011;56046;47.270;11.368;2024-03-22T12:44:16;2.87;;;1.43;;
68989;SDS011;56046;47.270;11.368;2024-03-22T12:46:42;3.60;;;1.30;;
68989;SDS011;56046;47.270;11.368;2024-03-22T12:49:09;4.03;;;1.20;;
68989;SDS011;56046;47.270;11.368;2024-03-22T12:51:35;2.33;;;1.10;;
68989;SDS011;56046;47.270;11.368;2024-03-22T12:54:00;2.55;;;1.20;;
68989;SDS011;56046;47.270;11.368;2024-03-22T12:56:26;1.90;;;0.93;;
68989;SDS011;56046;47.270;11.368;2024-03-22T12:58:51;2.77;;;1.57;;
68989;SDS011;56046;47.270;11.368;2024-03-22T13:01:16;2.93;;;1.40;;
68989;SDS011;56046;47.270;11.368;2024-03-22T13:03:41;2.30;;;1.17;;
68989;SDS011;56046;47.270;11.368;2024-03-22T13:06:06;2.47;;;1.20;;
68989;SDS011;56046;47.270;11.368;2024-03-22T13:08:32;4.07;;;1.50;;
68989;SDS011;56046;47.270;11.368;2024-03-22T13:10:57;4.47;;;1.20;;
68989;SDS011;56046;47.270;11.368;2024-03-22T13:13:22;2.03;;;0.80;;
68989;SDS011;56046;47.270;11.368;2024-03-22T13:15:47;3.30;;;1.07;;
68989;SDS011;56046;47.270;11.368;2024-03-22T13:18:13;4.03;;;1.23;;
68989;SDS011;56046;47.270;11.368;2024-03-22T13:20:38;2.92;;;1.25;;
68989;SDS011;56046;47.270;11.368;2024-03-22T13:23:04;1.97;;;1.20;;
68989;SDS011;56046;47.270;11.368;2024-03-22T13:25:29;2.10;;;1.43;;
68989;SDS011;56046;47.270;11.368;2024-03-22T13:27:54;3.00;;;1.30;;
68989;SDS011;56046;47.270;11.368;2024-03-22T13:30:20;3.17;;;1.50;;
68989;SDS011;56046;47.270;11.368;2024-03-22T13:32:45;3.03;;;1.40;;
68989;SDS011;56046;47.270;11.368;2024-03-22T13:35:10;2.33;;;1.43;;
68989;SDS011;56046;47.270;11.368;2024-03-22T13:37:36;4.80;;;1.43;;
68989;SDS011;56046;47.270;11.368;2024-03-22T13:40:01;2.17;;;1.47;;
68989;SDS011;56046;47.270;11.368;2024-03-22T13:42:26;3.43;;;1.63;;
68989;SDS011;56046;47.270;11.368;2024-03-22T13:44:51;2.87;;;1.20;;
68989;SDS011;56046;47.270;11.368;2024-03-22T13:47:17;2.83;;;1.40;;
68989;SDS011;56046;47.270;11.368;2024-03-22T13:49:43;2.83;;;1.40;;
68989;SDS011;56046;47.270;11.368;2024-03-22T13:52:08;2.50;;;1.67;;
68989;SDS011;56046;47.270;11.368;2024-03-22T13:54:34;2.75;;;1.50;;
68989;SDS011;56046;47.270;11.368;2024-03-22T13:56:59;2.67;;;1.40;;
68989;SDS011;56046;47.270;11.368;2024-03-22T13:59:25;4.05;;;1.52;;
68989;SDS011;56046;47.270;11.368;2024-03-22T14:01:51;2.20;;;1.00;;
68989;SDS011;56046;47.270;11.368;2024-03-22T14:04:16;2.07;;;1.10;;
68989;SDS011;56046;47.270;11.368;2024-03-22T14:06:41;2.90;;;1.20;;
68989;SDS011;56046;47.270;11.368;2024-03-22T14:09:09;2.42;;;1.30;;
68989;SDS011;56046;47.270;11.368;2024-03-22T14:11:35;2.70;;;1.57;;
68989;SDS011;56046;47.270;11.368;2024-03-22T14:14:01;3.60;;;1.50;;
68989;SDS011;56046;47.270;11.368;2024-03-22T14:16:26;1.73;;;1.13;;
68989;SDS011;56046;47.270;11.368;2024-03-22T14:18:51;2.53;;;1.50;;
68989;SDS011;56046;47.270;11.368;2024-03-22T14:21:17;3.28;;;1.40;;
68989;SDS011;56046;47.270;11.368;2024-03-22T14:23:46;2.77;;;1.47;;